Terminal Aerodrome Forecast
Issued by NWS Omaha/Valley, NE

Home | Current Version | Previous Version | Text Only | Print | Product List | Glossary On
Versions: 1 2 3 4 5 6 7 8 9 10 11 12 13 14 15 16 17 18 19 20 21 22 23 24 25 26 27 28 29 30 31 32 33 34
000
FTUS43 KOAX 122320
TAFLNK
TAF
KLNK 122320Z 1300/1324 35012KT P6SM SCT015 BKN150
     FM130500 36007KT P6SM FEW020 SCT250
      TEMPO 1310/1313 5SM BR
     FM131800 34005KT P6SM SCT040 BKN090=

USA.gov is the U.S. government's official web portal to all federal, state and local government web resources and services.